KONP 071507Z 0715/0812 20012KT P6SM SCT006 OVC018
TEMPO 0715/0719 6SM BR FEW003 BKN006
FM071900 22010KT 6SM BR BKN007 OVC012
FM080200 19005KT 3SM BR OVC003
From batch tds/tafs/production/2023/6/7/h15_m19_tafs.cache.xml
Issued (4 months ago)
Forecasts
0715/0719 20012KT P6SM SCT600 OVC1800

---
fcst_time_to: '2023-06-07T19:00:00Z'
sky_condition:
- - sky_cover: SCT
    cloud_base_ft_agl: '600'
- - sky_cover: OVC
    cloud_base_ft_agl: '1800'
wind_speed_kt: '12'
fcst_time_from: '2023-06-07T15:00:00Z'
wind_dir_degrees: '200'
visibility_statute_mi: '6.21'

TEMPO 0715/0719 6.0SM FEW300 BKN600

---
wx_string: BR
fcst_time_to: '2023-06-07T19:00:00Z'
sky_condition:
- - sky_cover: FEW
    cloud_base_ft_agl: '300'
- - sky_cover: BKN
    cloud_base_ft_agl: '600'
fcst_time_from: '2023-06-07T15:00:00Z'
change_indicator: TEMPO
visibility_statute_mi: '6.0'

FM071900 22010KT 6.0SM BKN700 OVC1200

---
wx_string: BR
fcst_time_to: '2023-06-08T02:00:00Z'
sky_condition:
- - sky_cover: BKN
    cloud_base_ft_agl: '700'
- - sky_cover: OVC
    cloud_base_ft_agl: '1200'
wind_speed_kt: '10'
fcst_time_from: '2023-06-07T19:00:00Z'
change_indicator: FM
wind_dir_degrees: '220'
visibility_statute_mi: '6.0'

FM080200 19005KT 3.0SM OVC300

---
wx_string: BR
fcst_time_to: '2023-06-08T12:00:00Z'
sky_condition:
- sky_cover: OVC
  cloud_base_ft_agl: '300'
wind_speed_kt: '5'
fcst_time_from: '2023-06-08T02:00:00Z'
change_indicator: FM
wind_dir_degrees: '190'
visibility_statute_mi: '3.0'

talk